Aviation Digital Data Service (ADDS)

Output produced by METARs form (0010 UTC 28 August 2015)
found at http://aviationweather.gov/adds/metars/
 
KMHT 272320Z 2800/2824 33003KT P6SM SKC